• Join FlightAware (Why Join?)
  • Login
  • US Flag 
09:53PM EDT


 

Airport Tracker/Info


-or-


 

Live Flight TrackerFlight Track Log ✈ AWE3327 ✈ 26-Apr-2013 ✈ KDCA - KSRQ

Flight Track Log - Related Links

Times and Time Zones

All times are in EDT time to prevent confusion due to time zone crossing. See the AWE3327 flight status page for this flight to view local times or setup timezone preferences in your user account.

Time Position Orientation Groundspeed Altitude Reporting Facility
EDT Latitude Longitude Course Direction KTS MPH feet Rate Location/Type
09:02AM 38.8833 -77.0667 230° Southwest 173 199 2,100  Level Potomac TRACON
09:03AM 38.6206 -77.2961 218° Southwest  Level FlightAware Approximate
09:03AM 38.9333 -77.1167 322° Northwest 226 260 4,000  Level Potomac TRACON
09:04AM 38.5374 -77.3792 218° Southwest  Level FlightAware Approximate
09:04AM 38.9833 -77.1667 322° Northwest 251 289 6,600  Level Potomac TRACON
09:05AM 38.4627 -77.4742 225° Southwest  Level FlightAware Approximate
09:05AM 38.9667 -77.2500 256° West 267 307 9,400  Level Potomac TRACON
09:05AM 38.9000 -77.2833 201° Southwest 291 335 11,000 1,920 Climbing Potomac TRACON
09:06AM 38.3807 -77.5545 233° Southwest  Level FlightAware Approximate
09:07AM 38.3155 -77.6601 230° Southwest  Level FlightAware Approximate
09:07AM 38.7544 -77.3644 203° Southwest 322 371 14,500  Level Washington Center
09:08AM 38.6683 -77.4131 204° Southwest 328 377 16,500 1,680 Climbing Washington Center
09:09AM 38.5797 -77.4639 204° Southwest 340 391 18,000 1,500 Climbing Washington Center
09:10AM 38.4914 -77.5147 204° Southwest 340 391 19,600 1,560 Climbing Washington Center
09:11AM 38.3989 -77.5706 205° Southwest 351 404 21,200 1,620 Climbing Washington Center
09:12AM 38.3225 -77.6481 219° Southwest 356 410 22,800 1,380 Climbing Washington Center
09:13AM 38.2439 -77.7306 220° Southwest 361 415 24,000 1,080 Climbing Washington Center
09:14AM 38.1650 -77.8181 221° Southwest 372 428 25,100 1,080 Climbing Washington Center
09:15AM 38.0842 -77.9028 220° Southwest 377 434 26,200 1,080 Climbing Washington Center
09:16AM 38.0078 -77.9769 217° Southwest 383 441 27,300 1,320 Climbing Washington Center
09:17AM 37.9267 -78.0664 221° Southwest 383 441 28,900 1,560 Climbing Washington Center
09:18AM 37.8414 -78.1531 219° Southwest 389 448 30,500 1,260 Climbing Washington Center
09:19AM 37.7558 -78.2500 222° Southwest 383 441 31,500 720 Climbing Washington Center
09:20AM 37.6664 -78.3411 219° Southwest 395 455 32,000 720 Climbing Washington Center
09:21AM 37.5894 -78.4197 219° Southwest 411 473 33,000 960 Climbing Washington Center
09:22AM 37.4994 -78.5131 219° Southwest 411 473 34,000 480 Climbing Washington Center
09:23AM 37.4117 -78.6039 219° Southwest 411 473 34,000  Level Washington Center
09:24AM 37.3239 -78.6919 219° Southwest 411 473 34,000  Level Washington Center
09:25AM 37.2381 -78.7797 219° Southwest 411 473 34,000  Level Washington Center
09:26AM 37.1417 -78.8775 219° Southwest 411 473 34,000  Level Washington Center
09:27AM 37.0517 -78.9672 219° Southwest 411 473 34,000  Level Washington Center
09:28AM 36.9656 -79.0569 220° Southwest 411 473 34,000  Level Washington Center
09:29AM 36.8775 -79.1467 219° Southwest 411 473 34,000  Level Washington Center
09:30AM 36.7892 -79.2333 218° Southwest 411 473 34,000  Level Washington Center
09:31AM 36.7139 -79.3100 219° Southwest 411 473 34,000  Level Washington Center
09:32AM 36.6256 -79.3989 219° Southwest 411 473 34,000  Level Washington Center
09:34AM 36.4686 -79.5519 218° Southwest 411 473 34,000  Level Atlanta Center
09:35AM 36.3761 -79.6472 220° Southwest 401 461 34,000  Level Atlanta Center
09:36AM 36.2894 -79.7319 218° Southwest 406 467 34,000  Level Atlanta Center
09:37AM 36.2006 -79.8189 218° Southwest 406 467 34,000  Level Atlanta Center
09:38AM 36.1158 -79.9031 219° Southwest 401 461 34,000  Level Atlanta Center
09:39AM 36.0347 -79.9767 216° Southwest 407 468 34,000  Level Atlanta Center
09:40AM 35.9283 -80.0333 203° Southwest 412 474 34,000  Level Atlanta Center
09:41AM 35.8214 -80.0872 202° Southwest 419 482 34,000  Level Atlanta Center
09:42AM 35.7106 -80.1436 202° Southwest 419 482 34,000  Level Atlanta Center
09:43AM 35.5917 -80.2031 202° Southwest 430 495 34,000  Level Atlanta Center
09:44AM 35.4950 -80.2533 203° Southwest 430 495 34,000  Level Atlanta Center
09:45AM 35.3883 -80.3067 202° Southwest 430 495 34,000  Level Atlanta Center
09:46AM 35.2794 -80.3625 203° Southwest 424 488 34,000  Level Atlanta Center
09:47AM 35.1725 -80.4156 202° Southwest 424 488 34,000  Level Atlanta Center
09:49AM 34.9450 -80.5272 202° Southwest 424 488 34,000  Level Jacksonville Center
09:50AM 34.8394 -80.5833 204° Southwest 419 482 34,000  Level Jacksonville Center
09:51AM 34.7464 -80.6236 200° South 409 471 34,000  Level Jacksonville Center
09:52AM 34.6389 -80.6794 203° Southwest 409 471 34,000  Level Jacksonville Center
09:53AM 34.5150 -80.7406 202° Southwest 434 499 34,000  Level Jacksonville Center
09:54AM 34.4072 -80.7911 201° Southwest 434 499 34,000  Level Jacksonville Center
09:55AM 34.3081 -80.8464 205° Southwest 429 494 34,000  Level Jacksonville Center
09:56AM 34.2064 -80.8889 199° South 418 481 34,000  Level Jacksonville Center
09:57AM 34.0925 -80.9342 198° South 418 481 34,000  Level Jacksonville Center
09:58AM 33.9783 -80.9717 195° South 424 488 34,000  Level Jacksonville Center
09:59AM 33.8600 -81.0094 195° South 437 503 34,000 180 Level Jacksonville Center
10:00AM 33.7417 -81.0469 195° South 437 503 34,400 660 Climbing Jacksonville Center
10:01AM 33.6253 -81.0842 195° South 437 503 35,400 780 Climbing Jacksonville Center
10:02AM 33.5089 -81.1214 195° South 431 496 36,000 300 Climbing Jacksonville Center
10:03AM 33.3925 -81.1586 195° South 431 496 36,000  Level Jacksonville Center
10:04AM 33.2783 -81.1931 194° South 431 496 36,000  Level Jacksonville Center
10:05AM 33.1639 -81.2300 195° South 431 496 36,000  Level Jacksonville Center
10:06AM 33.0475 -81.2669 195° South 431 496 36,000  Level Jacksonville Center
10:07AM 32.9311 -81.3036 195° South 431 496 36,000  Level Jacksonville Center
10:08AM 32.8189 -81.3378 194° South 431 496 36,000  Level Jacksonville Center
10:09AM 32.7064 -81.3717 194° South 431 496 36,000  Level Jacksonville Center
10:10AM 32.5817 -81.4133 196° South 426 490 36,000  Level Jacksonville Center
10:11AM 32.4653 -81.4497 195° South 431 496 36,000  Level Jacksonville Center
10:12AM 32.3611 -81.4808 194° South 431 496 36,000  Level Jacksonville Center
10:13AM 32.2342 -81.5197 195° South 431 496 36,000  Level Jacksonville Center
10:14AM 32.1303 -81.5531 195° South 431 496 36,000  Level Jacksonville Center
10:15AM 32.0033 -81.5892 194° South 431 496 36,000  Level Jacksonville Center
10:16AM 31.8889 -81.6228 194° South 431 496 36,000  Level Jacksonville Center
10:17AM 31.7847 -81.6533 194° South 431 496 36,000  Level Jacksonville Center
10:18AM 31.6597 -81.6917 195° South 431 496 36,000  Level Jacksonville Center
10:19AM 31.5556 -81.7222 194° South 431 496 36,000  Level Jacksonville Center
10:20AM 31.4308 -81.7603 195° South 431 496 36,000  Level Jacksonville Center
10:21AM 31.3267 -81.7933 195° South 431 496 36,000  Level Jacksonville Center
10:22AM 31.2100 -81.8336 196° South 431 496 36,000  Level Jacksonville Center
10:23AM 31.0975 -81.8639 193° South 431 496 36,000  Level Jacksonville Center
10:24AM 30.9850 -81.8992 195° South 426 490 36,000  Level Jacksonville Center
10:25AM 30.8706 -81.9292 193° South 426 490 36,000  Level Jacksonville Center
10:26AM 30.7539 -81.9642 194° South 426 490 36,000  Level Jacksonville Center
10:27AM 30.6372 -81.9992 194° South 432 497 36,000  Level Jacksonville Center
10:28AM 30.5225 -82.0269 192° South 432 497 36,000  Level Jacksonville Center
10:29AM 30.4058 -82.0617 194° South 432 497 36,000  Level Jacksonville Center
10:31AM 30.1681 -82.1189 192° South 432 497 36,000 -180 Level Jacksonville Center
10:32AM 30.0428 -82.1175 179° South 442 509 35,500 -1,560 Descending Jacksonville Center
10:33AM 29.9031 -82.1233 182° South 451 519 32,900 -2,520 Descending Jacksonville Center
10:34AM 29.7797 -82.1219 179° South 451 519 30,500 -2,280 Descending Jacksonville Center
10:35AM 29.6733 -82.1158 177° South 445 512 28,400 -2,160 Descending Jacksonville Center
10:36AM 29.5564 -82.1192 181° South 433 498 26,200 -1,740 Descending Jacksonville Center
10:37AM 29.4458 -82.1175 179° South 415 478 25,000 -900 Descending Jacksonville Center
10:38AM 29.3350 -82.1161 179° South 404 465 24,400 -960 Descending Jacksonville Center
10:39AM 29.2267 -82.1192 181° South 399 459 23,100 -1,500 Descending Jacksonville Center
10:40AM 29.1222 -82.1178 179° South 394 453 21,500 -1,800 Descending Jacksonville Center
10:41AM 29.0158 -82.1186 180° South 389 448 19,600 -2,040 Descending Jacksonville Center
10:42AM 28.9050 -82.1122 177° South 373 429 17,500 -2,220 Descending Jacksonville Center
10:44AM 28.7167 -82.1167 181° South 365 420 13,500 -2,100 Descending Tampa TRACON
10:45AM 28.6167 -82.1167 180° South 351 404 11,600 -1,260 Descending Tampa TRACON
10:46AM 28.5333 -82.1000 170° South 333 383 11,000 -300 Descending Tampa TRACON
10:47AM 28.4333 -82.1000 180° South 338 389 11,000  Level Tampa TRACON
10:48AM 28.3500 -82.1167 190° South 333 383 11,000  Level Tampa TRACON
10:49AM 28.2667 -82.1333 190° South 332 382 11,000  Level Tampa TRACON
10:50AM 28.1667 -82.1500 188° South 329 379 11,000 -360 Level Tampa TRACON
10:51AM 28.0833 -82.1667 190° South 308 354 10,300 -960 Descending Tampa TRACON
10:52AM 28.0000 -82.2000 199° South 289 333 8,900 -1,560 Descending Tampa TRACON
10:53AM 27.9333 -82.2333 204° Southwest 285 328 7,200 -1,560 Descending Tampa TRACON
10:54AM 27.8500 -82.2667 199° South 285 328 6,000 -600 Descending Tampa TRACON
10:55AM 27.7833 -82.3000 204° Southwest 283 326 6,000  Level Tampa TRACON
10:56AM 27.7167 -82.3333 204° Southwest 257 296 6,000  Level Tampa TRACON
10:57AM 27.6500 -82.3667 204° Southwest 242 278 6,000  Level Tampa TRACON
10:58AM 27.6000 -82.4167 222° Southwest 243 280 6,000 -480 Level Tampa TRACON
10:59AM 27.5667 -82.5000 246° West 240 276 5,000 -840 Descending Tampa TRACON
11:00AM 27.5500 -82.5667 254° West 234 269 4,200 -900 Descending Tampa TRACON
11:01AM 27.5333 -82.6167 249° West 219 252 3,400 -720 Descending Tampa TRACON
11:02AM 27.5167 -82.6833 254° West 198 228 3,000 -660 Descending Tampa TRACON
11:03AM 27.4833 -82.6500 138° Southeast 183 211 2,100 -900 Descending Tampa TRACON